createdAt,value
2022-11-25T00:00:06.582Z,97384.72
2022-11-25T00:02:42.813Z,97376.09
2022-11-25T00:05:09.400Z,97371.88
2022-11-25T00:07:36.179Z,97362.91
2022-11-25T00:10:03.625Z,97363.75
2022-11-25T00:12:30.022Z,97368.00
2022-11-25T00:14:56.460Z,97360.19
2022-11-25T00:17:22.887Z,97369.06
2022-11-25T00:19:50.856Z,97369.06
2022-11-25T00:22:17.361Z,97368.25
2022-11-25T00:24:43.770Z,97369.19
2022-11-25T00:27:10.169Z,97371.34
2022-11-25T00:29:37.990Z,97377.06
2022-11-25T00:32:04.512Z,97373.88
2022-11-25T00:34:32.793Z,97375.66
2022-11-25T00:36:59.305Z,97381.94
2022-11-25T00:39:27.031Z,97381.50
2022-11-25T00:42:12.000Z,97381.59
2022-11-25T00:44:41.993Z,97394.72
2022-11-25T00:47:11.470Z,97394.13
2022-11-25T00:49:39.032Z,97403.84
2022-11-25T00:52:06.080Z,97406.53
2022-11-25T00:54:32.905Z,97407.63
2022-11-25T00:56:59.387Z,97413.53
2022-11-25T00:59:26.133Z,97411.16
2022-11-25T01:01:52.686Z,97417.31
2022-11-25T01:04:19.199Z,97423.59
2022-11-25T01:06:45.612Z,97414.25
2022-11-25T01:09:14.568Z,97420.16
2022-11-25T01:11:41.158Z,97426.53
2022-11-25T01:14:09.172Z,97431.28
2022-11-25T01:16:35.694Z,97429.88
2022-11-25T01:19:02.865Z,97428.94
2022-11-25T01:21:31.110Z,97427.41
2022-11-25T01:23:58.776Z,97430.00
2022-11-25T01:26:25.235Z,97430.69
2022-11-25T01:28:56.109Z,97426.34
2022-11-25T01:31:23.493Z,97413.34
2022-11-25T01:33:53.226Z,97415.00
2022-11-25T01:36:19.678Z,97427.75
2022-11-25T01:38:49.447Z,97413.69
2022-11-25T01:41:15.925Z,97426.41
2022-11-25T01:43:42.514Z,97421.81
2022-11-25T01:46:11.970Z,97427.00
2022-11-25T01:48:45.438Z,97414.00
2022-11-25T01:51:26.312Z,97423.34
2022-11-25T01:53:54.244Z,97427.59
2022-11-25T01:56:21.721Z,97416.00
2022-11-25T01:58:49.410Z,97413.28
2022-11-25T02:01:16.800Z,97405.47
2022-11-25T02:03:45.214Z,97406.31
2022-11-25T02:06:22.809Z,97409.38
2022-11-25T02:08:50.712Z,97411.00
2022-11-25T02:11:19.149Z,97405.94
2022-11-25T02:13:47.262Z,97413.59
2022-11-25T02:16:13.719Z,97403.22
2022-11-25T02:18:40.501Z,97409.59
2022-11-25T02:21:07.808Z,97409.50
2022-11-25T02:23:39.954Z,97413.72
2022-11-25T02:26:06.547Z,97410.16
2022-11-25T02:28:33.016Z,97410.16
2022-11-25T02:31:02.735Z,97408.16
2022-11-25T02:33:29.344Z,97413.47
2022-11-25T02:36:01.633Z,97409.94
2022-11-25T02:38:41.359Z,97407.47
2022-11-25T02:41:22.298Z,97411.47
2022-11-25T02:43:54.737Z,97397.75
2022-11-25T02:46:24.125Z,97400.13
2022-11-25T02:51:41.672Z,97402.03
2022-11-25T02:54:09.220Z,97394.22
2022-11-25T02:56:36.644Z,97398.34
2022-11-25T02:59:03.565Z,97400.56
2022-11-25T03:01:31.849Z,97400.72
2022-11-25T03:03:58.840Z,97409.19
2022-11-25T03:06:27.501Z,97397.00
2022-11-25T03:08:54.316Z,97401.38
2022-11-25T03:11:20.799Z,97404.81
2022-11-25T03:13:47.333Z,97407.28
2022-11-25T03:16:15.018Z,97403.75
2022-11-25T03:18:43.809Z,97405.97
2022-11-25T03:21:12.631Z,97414.34
2022-11-25T03:23:39.023Z,97410.78
2022-11-25T03:26:06.828Z,97410.44
2022-11-25T03:28:33.735Z,97421.41
2022-11-25T03:31:03.144Z,97423.16
2022-11-25T03:33:29.827Z,97419.72
2022-11-25T03:35:56.266Z,97425.50
2022-11-25T03:38:22.709Z,97426.34
2022-11-25T03:40:50.220Z,97427.97
2022-11-25T03:43:17.357Z,97424.31
2022-11-25T03:45:43.884Z,97420.63
2022-11-25T03:48:10.559Z,97423.22
2022-11-25T03:50:36.972Z,97419.56
2022-11-25T03:53:03.367Z,97414.94
2022-11-25T03:55:29.811Z,97410.44
2022-11-25T03:57:56.389Z,97414.81
2022-11-25T04:00:24.890Z,97424.38
2022-11-25T04:02:58.554Z,97415.38
2022-11-25T04:05:25.009Z,97421.91
2022-11-25T04:07:57.581Z,97431.25
2022-11-25T04:10:24.744Z,97432.03
2022-11-25T04:12:52.547Z,97431.47
2022-11-25T04:15:24.882Z,97432.44
2022-11-25T04:17:55.985Z,97434.91
2022-11-25T04:20:22.410Z,97440.09
2022-11-25T04:22:55.428Z,97440.25
2022-11-25T04:25:22.481Z,97436.81
2022-11-25T04:27:48.924Z,97443.53
2022-11-25T04:30:19.149Z,97440.81
2022-11-25T04:32:45.766Z,97446.59
2022-11-25T04:35:13.682Z,97442.22
2022-11-25T04:37:44.336Z,97439.16
2022-11-25T04:40:11.342Z,97444.91
2022-11-25T04:42:39.676Z,97438.09
2022-11-25T04:45:22.940Z,97435.75
2022-11-25T04:47:51.800Z,97443.41
2022-11-25T04:50:20.533Z,97443.41
2022-11-25T04:53:00.850Z,97448.63
2022-11-25T04:55:30.051Z,97436.44
2022-11-25T04:57:58.208Z,97433.84
2022-11-25T05:00:24.825Z,97441.53
2022-11-25T05:02:53.031Z,97432.63
2022-11-25T05:05:20.771Z,97425.78
2022-11-25T05:07:47.230Z,97424.13
2022-11-25T05:10:14.702Z,97428.50
2022-11-25T05:12:45.370Z,97437.25
2022-11-25T05:15:16.087Z,97429.56
2022-11-25T05:17:44.969Z,97431.34
2022-11-25T05:20:12.549Z,97417.13
2022-11-25T05:22:38.990Z,97425.78
2022-11-25T05:25:07.847Z,97421.63
2022-11-25T05:27:39.753Z,97414.94
2022-11-25T05:30:09.491Z,97413.59
2022-11-25T05:32:35.913Z,97422.59
2022-11-25T05:35:07.233Z,97424.25
2022-11-25T05:37:34.237Z,97422.72
2022-11-25T05:40:04.746Z,97424.38
2022-11-25T05:42:51.425Z,97432.88
2022-11-25T05:45:19.408Z,97412.78
2022-11-25T05:47:46.134Z,97422.91
2022-11-25T05:50:17.321Z,97431.81
2022-11-25T05:53:02.423Z,97444.25
2022-11-25T05:55:28.997Z,97447.66
2022-11-25T05:57:58.200Z,97451.91
2022-11-25T06:00:26.704Z,97452.84
2022-11-25T06:02:53.899Z,97456.03
2022-11-25T06:05:21.442Z,97457.81
2022-11-25T06:07:47.868Z,97447.97
2022-11-25T06:10:14.602Z,97447.88
2022-11-25T06:12:41.420Z,97448.66
2022-11-25T06:15:08.714Z,97444.44
2022-11-25T06:17:36.235Z,97447.88
2022-11-25T06:20:22.962Z,97445.38
2022-11-25T06:22:50.543Z,97444.44
2022-11-25T06:25:22.536Z,97445.50
2022-11-25T06:28:11.973Z,97449.19
2022-11-25T06:30:36.870Z,97454.41
2022-11-25T06:33:13.010Z,97460.16
2022-11-25T06:35:41.170Z,97466.69
2022-11-25T06:38:07.558Z,97460.09
2022-11-25T06:40:34.008Z,97472.97
2022-11-25T06:43:00.436Z,97464.81
2022-11-25T06:45:26.898Z,97471.63
2022-11-25T06:47:53.629Z,97473.44
2022-11-25T06:50:20.099Z,97479.09
2022-11-25T06:52:46.634Z,97476.72
2022-11-25T06:55:13.304Z,97472.34
2022-11-25T06:57:39.752Z,97472.34
2022-11-25T07:00:06.538Z,97469.03
2022-11-25T07:02:39.801Z,97468.22
2022-11-25T07:05:08.373Z,97470.56
2022-11-25T07:07:35.117Z,97473.88
2022-11-25T07:10:03.101Z,97464.28
2022-11-25T07:12:30.795Z,97471.03
2022-11-25T07:14:57.252Z,97479.09
2022-11-25T07:17:23.637Z,97478.13
2022-11-25T07:19:50.111Z,97481.25
2022-11-25T07:22:16.533Z,97486.19
2022-11-25T07:24:42.937Z,97488.53
2022-11-25T07:27:09.714Z,97475.38
2022-11-25T07:29:57.976Z,97481.28
2022-11-25T07:32:22.668Z,97480.25
2022-11-25T07:34:50.306Z,97483.06
2022-11-25T07:37:17.802Z,97490.50
2022-11-25T07:39:44.208Z,97491.53
2022-11-25T07:42:10.598Z,97499.56
2022-11-25T07:44:36.994Z,97511.91
2022-11-25T07:47:24.858Z,97518.22
2022-11-25T07:49:51.408Z,97515.75
2022-11-25T07:52:17.903Z,97524.13
2022-11-25T07:54:44.317Z,97520.72
2022-11-25T07:57:10.786Z,97523.44
2022-11-25T07:59:41.164Z,97526.81
2022-11-25T08:02:10.955Z,97530.22
2022-11-25T08:04:37.461Z,97526.00
2022-11-25T08:07:03.879Z,97536.97
2022-11-25T08:09:30.310Z,97530.69
2022-11-25T08:11:57.051Z,97543.19
2022-11-25T08:14:23.495Z,97542.94
2022-11-25T08:16:50.006Z,97532.78
2022-11-25T08:19:17.541Z,97534.28
2022-11-25T08:21:44.629Z,97528.16
2022-11-25T08:24:18.797Z,97524.72
2022-11-25T08:26:45.255Z,97529.34
2022-11-25T08:29:13.223Z,97529.56
2022-11-25T08:31:39.812Z,97532.25
2022-11-25T08:34:06.792Z,97535.97
2022-11-25T08:36:34.574Z,97532.53
2022-11-25T08:39:02.105Z,97531.47
2022-11-25T08:41:30.120Z,97537.69
2022-11-25T08:43:57.270Z,97540.84
2022-11-25T08:46:25.848Z,97547.56
2022-11-25T08:48:52.680Z,97541.44
2022-11-25T08:51:20.925Z,97547.09
2022-11-25T08:53:47.486Z,97562.56
2022-11-25T08:56:15.003Z,97562.31
2022-11-25T08:58:41.700Z,97564.03
2022-11-25T09:01:08.452Z,97565.53
2022-11-25T09:03:36.143Z,97571.19
2022-11-25T09:06:02.984Z,97566.53
2022-11-25T09:08:30.233Z,97565.34
2022-11-25T09:10:57.239Z,97561.66
2022-11-25T09:13:23.790Z,97565.50
2022-11-25T09:15:50.389Z,97563.19
2022-11-25T09:18:19.034Z,97558.16
2022-11-25T09:20:45.945Z,97563.38
2022-11-25T09:23:12.365Z,97559.28
2022-11-25T09:25:39.189Z,97568.34
2022-11-25T09:28:05.653Z,97568.91
2022-11-25T09:30:32.335Z,97575.13
2022-11-25T09:32:58.757Z,97558.13
2022-11-25T09:35:25.564Z,97566.78
2022-11-25T09:37:51.951Z,97565.59
2022-11-25T09:40:18.707Z,97559.56
2022-11-25T09:43:26.480Z,97562.75
2022-11-25T09:46:23.764Z,97563.81
2022-11-25T09:49:09.103Z,97568.38
2022-11-25T09:51:53.019Z,97553.66
2022-11-25T09:54:26.699Z,97556.53
2022-11-25T09:57:03.260Z,97549.56
2022-11-25T09:59:36.095Z,97554.06
2022-11-25T10:02:11.405Z,97546.25
2022-11-25T10:04:40.627Z,97546.09
2022-11-25T10:07:10.279Z,97540.38
2022-11-25T10:09:37.112Z,97546.00
2022-11-25T10:12:15.969Z,97546.66
2022-11-25T10:14:53.727Z,97533.38
2022-11-25T10:17:25.957Z,97539.28
2022-11-25T10:20:11.296Z,97555.09
2022-11-25T10:22:41.247Z,97552.06
2022-11-25T10:25:15.912Z,97539.66
2022-11-25T10:27:51.049Z,97545.41
2022-11-25T10:30:22.246Z,97543.88
2022-11-25T10:33:02.456Z,97535.84
2022-11-25T10:35:35.613Z,97536.63
2022-11-25T10:38:05.618Z,97537.66
2022-11-25T10:40:32.156Z,97538.03
2022-11-25T10:42:58.834Z,97528.63
2022-11-25T10:45:32.028Z,97520.34
2022-11-25T10:48:13.450Z,97527.97
2022-11-25T10:50:44.124Z,97521.50
2022-11-25T10:53:10.524Z,97523.31
2022-11-25T10:55:36.946Z,97522.63
2022-11-25T10:58:22.260Z,97513.81
2022-11-25T11:01:01.053Z,97544.63
2022-11-25T11:03:28.448Z,97527.50
2022-11-25T11:05:54.880Z,97533.41
2022-11-25T11:08:21.350Z,97519.09
2022-11-25T11:10:57.285Z,97521.84
2022-11-25T11:13:25.476Z,97519.47
2022-11-25T11:15:53.198Z,97521.78
2022-11-25T11:18:37.722Z,97517.91
2022-11-25T11:21:05.892Z,97513.13
2022-11-25T11:23:46.569Z,97513.09
2022-11-25T11:26:21.070Z,97507.63
2022-11-25T11:28:57.331Z,97507.97
2022-11-25T11:31:26.805Z,97518.97
2022-11-25T11:34:19.536Z,97510.59
2022-11-25T11:36:49.157Z,97510.66
2022-11-25T11:39:30.922Z,97503.28
2022-11-25T11:42:00.351Z,97510.28
2022-11-25T11:44:56.171Z,97507.47
2022-11-25T11:47:25.419Z,97502.31
2022-11-25T11:50:10.710Z,97505.66
2022-11-25T11:52:40.182Z,97522.03
2022-11-25T11:55:18.906Z,97520.25
2022-11-25T11:57:54.903Z,97527.97
2022-11-25T12:00:22.096Z,97522.28
2022-11-25T12:02:55.270Z,97526.22
2022-11-25T12:05:27.310Z,97534.25
2022-11-25T12:08:05.711Z,97528.56
2022-11-25T12:10:40.789Z,97511.66
2022-11-25T12:13:07.406Z,97516.28
2022-11-25T12:15:40.447Z,97522.09
2022-11-25T12:18:14.307Z,97524.31
2022-11-25T12:20:49.842Z,97518.81
2022-11-25T12:23:21.267Z,97510.31
2022-11-25T12:25:51.966Z,97515.69
2022-11-25T12:28:20.811Z,97509.03
2022-11-25T12:30:50.329Z,97517.31
2022-11-25T12:33:21.605Z,97514.56
2022-11-25T12:36:07.176Z,97524.19
2022-11-25T12:38:45.443Z,97520.63
2022-11-25T12:41:20.948Z,97528.75
2022-11-25T12:44:02.758Z,97541.38
2022-11-25T12:46:34.963Z,97544.16
2022-11-25T12:49:02.083Z,97537.53
2022-11-25T12:51:31.521Z,97543.31
2022-11-25T12:54:16.004Z,97529.69
2022-11-25T12:57:03.933Z,97533.16
2022-11-25T12:59:33.437Z,97288.44
2022-11-25T13:02:05.048Z,97544.44
2022-11-25T13:04:31.563Z,97551.19
2022-11-25T13:07:10.162Z,97545.03
2022-11-25T13:09:55.495Z,97553.13
2022-11-25T13:12:22.204Z,97552.69
2022-11-25T13:15:04.365Z,97543.19
2022-11-25T13:17:34.089Z,97540.88
2022-11-25T13:20:19.550Z,97541.13
2022-11-25T13:23:00.970Z,97545.97
2022-11-25T13:25:29.933Z,97544.28
2022-11-25T13:27:57.781Z,97543.19
2022-11-25T13:30:44.939Z,97538.78
2022-11-25T13:33:11.324Z,97542.75
2022-11-25T13:35:48.675Z,97554.88
2022-11-25T13:38:30.335Z,97552.53
2022-11-25T13:40:58.091Z,97548.38
2022-11-25T13:43:24.718Z,97545.78
2022-11-25T13:45:52.905Z,97554.59
2022-11-25T13:48:24.856Z,97549.06
2022-11-25T13:53:39.156Z,97560.22
2022-11-25T13:56:15.955Z,97560.13
2022-11-25T13:59:02.341Z,97563.69
2022-11-25T14:01:30.445Z,97566.00
2022-11-25T14:04:00.090Z,97568.91
2022-11-25T14:06:35.650Z,97591.06
2022-11-25T14:09:14.395Z,97592.72
2022-11-25T14:11:59.740Z,97591.47
2022-11-25T14:14:26.112Z,97584.47
2022-11-25T14:17:15.642Z,97579.78
2022-11-25T14:20:00.879Z,97588.97
2022-11-25T14:22:27.611Z,97592.44
2022-11-25T14:25:32.432Z,97591.19
2022-11-25T14:28:17.729Z,97600.00
2022-11-25T14:30:50.317Z,97594.78
2022-11-25T14:33:25.875Z,97600.69
2022-11-25T14:35:55.846Z,97601.69
2022-11-25T14:38:32.747Z,97599.22
2022-11-25T14:41:04.549Z,97610.50
2022-11-25T14:43:37.570Z,97613.50
2022-11-25T14:46:17.719Z,97613.22
2022-11-25T14:48:44.329Z,97621.88
2022-11-25T14:51:11.605Z,97613.50
2022-11-25T14:53:48.199Z,97604.03
2022-11-25T14:56:16.331Z,97615.28
2022-11-25T14:58:47.440Z,97616.25
2022-11-25T15:01:33.672Z,97621.06
2022-11-25T15:04:12.428Z,97625.31
2022-11-25T15:06:40.530Z,97628.09
2022-11-25T15:09:27.342Z,97625.88
2022-11-25T15:11:56.759Z,97625.75
2022-11-25T15:14:32.222Z,97624.91
2022-11-25T15:17:00.253Z,97623.13
2022-11-25T15:19:34.025Z,97627.66
2022-11-25T15:24:54.766Z,97628.94
2022-11-25T15:27:25.181Z,97629.59
2022-11-25T15:29:54.971Z,97639.38
2022-11-25T15:32:25.791Z,97643.91
2022-11-25T15:34:53.815Z,97636.88
2022-11-25T15:37:20.958Z,97645.13
2022-11-25T15:39:48.028Z,97650.34
2022-11-25T15:42:14.946Z,97651.34
2022-11-25T15:44:47.300Z,97676.47
2022-11-25T15:47:23.421Z,97652.97
2022-11-25T15:49:55.685Z,97653.94
2022-11-25T15:52:23.492Z,97661.91
2022-11-25T15:54:51.465Z,97660.94
2022-11-25T15:57:26.986Z,97652.97
2022-11-25T15:59:53.568Z,97654.88
2022-11-25T16:02:32.380Z,97655.72
2022-11-25T16:05:14.227Z,97657.91
2022-11-25T16:07:50.407Z,97662.03
2022-11-25T16:10:17.319Z,97657.78
2022-11-25T16:12:43.821Z,97660.25
2022-11-25T16:15:17.610Z,97663.84
2022-11-25T16:17:44.440Z,97661.38
2022-11-25T16:20:18.457Z,97667.53
2022-11-25T16:22:45.546Z,97671.09
2022-11-25T16:25:15.085Z,97671.97
2022-11-25T16:27:43.043Z,97672.03
2022-11-25T16:30:19.655Z,97674.66
2022-11-25T16:32:46.316Z,97679.06
2022-11-25T16:35:15.294Z,97682.47
2022-11-25T16:37:47.076Z,97689.38
2022-11-25T16:40:15.768Z,97695.53
2022-11-25T16:42:46.303Z,97694.59
2022-11-25T16:45:18.311Z,97698.97
2022-11-25T16:47:44.751Z,97701.59
2022-11-25T16:50:16.150Z,97699.97
2022-11-25T16:52:42.853Z,97705.03
2022-11-25T16:55:09.611Z,97706.81
2022-11-25T16:57:36.534Z,97700.53
2022-11-25T17:00:08.639Z,97701.50
2022-11-25T17:02:35.481Z,97713.75
2022-11-25T17:05:31.557Z,97711.94
2022-11-25T17:07:58.037Z,97717.16
2022-11-25T17:10:26.496Z,97723.22
2022-11-25T17:12:53.000Z,97720.47
2022-11-25T17:15:22.041Z,97726.66
2022-11-25T17:17:48.906Z,97723.22
2022-11-25T17:20:21.506Z,97726.53
2022-11-25T17:22:48.325Z,97728.44
2022-11-25T17:25:14.923Z,97732.84
2022-11-25T17:27:42.044Z,97736.97
2022-11-25T17:30:16.544Z,97737.91
2022-11-25T17:32:46.412Z,97743.28
2022-11-25T17:35:17.813Z,97748.50
2022-11-25T17:37:44.881Z,97757.03
2022-11-25T17:40:11.679Z,97759.78
2022-11-25T17:42:38.560Z,97765.84
2022-11-25T17:45:11.473Z,97770.09
2022-11-25T17:47:38.251Z,97767.63
2022-11-25T17:50:15.617Z,97775.31
2022-11-25T17:52:42.028Z,97776.97
2022-11-25T17:55:08.894Z,97774.09
2022-11-25T18:01:35.910Z,97778.50
2022-11-25T18:04:16.332Z,97786.31
2022-11-25T18:06:43.210Z,97788.81
2022-11-25T18:09:11.565Z,97790.47
2022-11-25T18:11:42.557Z,97794.72
2022-11-25T18:14:13.345Z,97791.13
2022-11-25T18:16:41.469Z,97794.72
2022-11-25T18:19:11.332Z,97799.53
2022-11-25T18:21:38.313Z,97801.91
2022-11-25T18:24:05.004Z,97798.19
2022-11-25T18:26:34.555Z,97800.81
2022-11-25T18:29:01.750Z,97803.41
2022-11-25T18:31:28.793Z,97803.97
2022-11-25T18:33:55.900Z,97814.41
2022-11-25T18:36:22.480Z,97817.59
2022-11-25T18:38:49.661Z,97813.88
2022-11-25T18:45:18.613Z,97820.06
2022-11-25T18:47:45.566Z,97824.47
2022-11-25T18:50:16.164Z,97829.25
2022-11-25T18:52:43.175Z,97831.38
2022-11-25T18:55:11.106Z,97837.16
2022-11-25T18:57:38.230Z,97833.78
2022-11-25T19:02:52.181Z,97847.31
2022-11-25T19:05:21.135Z,97860.97
2022-11-25T19:07:48.953Z,97856.56
2022-11-25T19:10:16.580Z,97857.22
2022-11-25T19:12:45.816Z,97861.66
2022-11-25T19:15:14.523Z,97868.38
2022-11-25T19:17:42.387Z,97864.84
2022-11-25T19:20:19.203Z,97862.78
2022-11-25T19:22:47.052Z,97871.28
2022-11-25T19:25:13.531Z,97881.50
2022-11-25T19:27:52.190Z,97883.00
2022-11-25T19:30:23.029Z,97879.44
2022-11-25T19:32:51.636Z,97886.44
2022-11-25T19:35:21.528Z,97894.16
2022-11-25T19:37:50.871Z,97896.06
2022-11-25T19:40:19.090Z,97906.97
2022-11-25T19:42:46.305Z,97898.84
2022-11-25T19:45:13.286Z,97900.66
2022-11-25T19:47:39.889Z,97910.97
2022-11-25T19:50:06.640Z,97917.84
2022-11-25T19:52:35.835Z,97917.84
2022-11-25T19:55:09.743Z,97928.16
2022-11-25T19:57:36.176Z,97931.59
2022-11-25T20:00:02.781Z,97932.59
2022-11-25T20:02:35.505Z,97943.84
2022-11-25T20:05:03.541Z,97950.75
2022-11-25T20:07:31.074Z,97953.38
2022-11-25T20:10:01.152Z,97970.56
2022-11-25T20:12:31.246Z,97976.34
2022-11-25T20:14:57.642Z,97978.03
2022-11-25T20:17:32.587Z,97986.44
2022-11-25T20:20:04.584Z,97980.38
2022-11-25T20:22:33.003Z,97990.00
2022-11-25T20:25:00.937Z,97996.75
2022-11-25T20:27:28.198Z,97990.56
2022-11-25T20:29:54.603Z,97995.91
2022-11-25T20:32:21.114Z,98000.03
2022-11-25T20:34:47.900Z,97999.75
2022-11-25T20:37:16.093Z,98001.81
2022-11-25T20:39:44.384Z,98008.28
2022-11-25T20:42:12.282Z,98007.56
2022-11-25T20:44:39.142Z,98011.94
2022-11-25T20:47:11.782Z,98007.56
2022-11-25T20:49:38.257Z,98013.22
2022-11-25T20:52:04.927Z,98010.19
2022-11-25T20:54:35.739Z,98012.09
2022-11-25T20:57:02.952Z,98018.59
2022-11-25T20:59:30.992Z,98016.69
2022-11-25T21:01:57.602Z,98019.16
2022-11-25T21:04:24.166Z,98029.50
2022-11-25T21:06:50.613Z,98031.97
2022-11-25T21:09:23.128Z,98038.88
2022-11-25T21:11:49.596Z,98043.97
2022-11-25T21:14:17.866Z,98036.81
2022-11-25T21:16:44.457Z,98043.56
2022-11-25T21:19:10.979Z,98044.41
2022-11-25T21:21:39.138Z,98045.78
2022-11-25T21:24:10.206Z,98050.78
2022-11-25T21:26:36.571Z,98055.16
2022-11-25T21:29:03.052Z,98059.19
2022-11-25T21:31:30.069Z,98053.53
2022-11-25T21:33:57.830Z,98057.00
2022-11-25T21:36:27.717Z,98060.19
2022-11-25T21:38:58.832Z,98061.81
2022-11-25T21:41:25.451Z,98061.41
2022-11-25T21:43:52.106Z,98092.81
2022-11-25T21:46:19.973Z,98069.97
2022-11-25T21:48:46.668Z,98072.16
2022-11-25T21:51:14.410Z,98073.25
2022-11-25T21:53:40.997Z,98074.59
2022-11-25T21:56:14.630Z,98078.31
2022-11-25T21:58:41.185Z,98088.63
2022-11-25T22:01:10.399Z,98086.84
2022-11-25T22:03:36.899Z,98078.59
2022-11-25T22:06:03.382Z,98095.66
2022-11-25T22:08:32.400Z,98095.53
2022-11-25T22:10:58.780Z,98101.34
2022-11-25T22:13:29.036Z,98106.88
2022-11-25T22:15:57.185Z,98100.28
2022-11-25T22:18:34.456Z,98109.50
2022-11-25T22:21:01.029Z,98108.28
2022-11-25T22:23:28.143Z,98108.16
2022-11-25T22:25:55.151Z,98103.63
2022-11-25T22:28:22.895Z,98120.84
2022-11-25T22:30:56.821Z,98118.13
2022-11-25T22:33:29.110Z,98122.38
2022-11-25T22:35:55.507Z,98122.50
2022-11-25T22:38:22.307Z,98119.06
2022-11-25T22:41:03.549Z,98121.81
2022-11-25T22:43:35.031Z,98129.94
2022-11-25T22:46:03.248Z,98133.38
2022-11-25T22:48:37.555Z,98132.56
2022-11-25T22:51:04.661Z,98127.69
2022-11-25T22:53:31.457Z,98137.09
2022-11-25T22:55:58.596Z,98136.09
2022-11-25T22:58:28.167Z,98136.09
2022-11-25T23:00:56.008Z,98143.66
2022-11-25T23:03:26.940Z,98144.78
2022-11-25T23:05:54.260Z,98140.25
2022-11-25T23:08:22.095Z,98143.09
2022-11-25T23:10:49.321Z,98149.88
2022-11-25T23:13:18.345Z,98148.38
2022-11-25T23:15:47.329Z,98147.69
2022-11-25T23:18:23.724Z,98150.88
2022-11-25T23:20:50.241Z,98150.59
2022-11-25T23:23:21.098Z,98183.66
2022-11-25T23:25:47.943Z,98153.22
2022-11-25T23:28:15.052Z,98155.00
2022-11-25T23:30:45.200Z,98158.31
2022-11-25T23:33:16.859Z,98153.78
2022-11-25T23:35:43.710Z,98156.41
2022-11-25T23:38:15.155Z,98162.19
2022-11-25T23:40:41.579Z,98164.81
2022-11-25T23:43:17.943Z,98163.03
2022-11-25T23:45:47.985Z,98166.22
2022-11-25T23:48:14.860Z,98162.78
2022-11-25T23:50:41.593Z,98169.22
2022-11-25T23:53:12.961Z,98172.09
2022-11-25T23:55:39.382Z,98176.38
2022-11-25T23:58:15.589Z,98176.63
